首页
METAR-TAF:

METAR-TAF

机场 :

图兹拉国际机场

图兹拉, 波斯尼亚和黑塞哥维那

纬度: 44-33N, 经度: 018-42E, 海拔: 306米

当前天气观测

该预报发布于30分钟前的20:30 UTC
风速1节,风向多变
温度 19°C
湿度 88%
气压 1023 hPa
能见度10公里或以上
1500米以下无云,无积雨云

METAR: LQTZ 222030Z VRB01KT CAVOK 19/17 Q1023

时间: 23:00 (21:00 UTC)

预报

该预报发布于4小时和0分钟前的17:00 UTC
预报有效从22日的 18点(UTC)到 23日的 18点(UTC)
风速5节,风向东转东北
能见度10公里或以上
散云层高于3500英尺
几率 30% :
短暂存在
从 23日的 14点(UTC)到 23日的 18点(UTC)
少量云层高于3500英尺, 积雨云.
散云层高于4500英尺
雷暴, 雨

TAF: LQTZ 221700Z 2218/2318 06005KT 9999 SCT035 TX31/2314Z TN15/2304Z PROB30 TEMPO 2314/2318 TSRA FEW035CB SCT045

超过4000个机场的气象观测和天气预报(METAR&TAF报告)。

可查询的气象台以黄色和红色小点在地图上表示。

将鼠标移到小点上方,可查看气象台名称。

然后点击查看天气观测和预报。

如需切换地图:点击带黑十字的绿色按钮放大地图;点击带横线的绿色按钮缩小地图;或者点击绿色箭头查看邻近地区的地图。


METAR-TAF: